OMD182 KLAX-KGYR
Flight info
| Callsign | OMD182 |
|---|---|
| Flight time | 0h 50m |
| Altitude | 39000 |
| Route | DOTSS2 CNERY BLH BXK |
| Aircraft | A20N/M-SDE2E3FGHIRWXY/LB1 |
Departure
| Time | 2026-05-05 02:20 |
|---|---|
| Airport | Los Angeles International Airport (KLAX) |
Arrival
| Time | 2026-05-05 03:10 |
|---|---|
| Airport | Phoenix Goodyear Airport (KGYR) |
| Time | Latitude | Longitude | Altitude | Speed | Heading |
|---|---|---|---|---|---|
| 2026-05-05 01:51 | 33.94093 | -118.40389 | 124 ft | 0 kts | 264° |
| 2026-05-05 02:06 | 33.94093 | -118.40388 | 124 ft | 1 kts | 264° |
| 2026-05-05 02:06 | 33.94094 | -118.40370 | 123 ft | 2 kts | 264° |
| 2026-05-05 02:06 | 33.94096 | -118.40354 | 123 ft | 0 kts | 264° |
| 2026-05-05 02:06 | 33.94096 | -118.40346 | 123 ft | 1 kts | 257° |
| 2026-05-05 02:07 | 33.94109 | -118.40331 | 123 ft | 2 kts | 192° |
| 2026-05-05 02:07 | 33.94117 | -118.40331 | 123 ft | 1 kts | 167° |
| 2026-05-05 02:07 | 33.94122 | -118.40331 | 123 ft | 0 kts | 173° |
| 2026-05-05 02:09 | 33.94116 | -118.40331 | 123 ft | 1 kts | 173° |
| 2026-05-05 02:09 | 33.94097 | -118.40327 | 123 ft | 0 kts | 173° |
| 2026-05-05 02:10 | 33.94084 | -118.40326 | 123 ft | 2 kts | 174° |
| 2026-05-05 02:10 | 33.94058 | -118.40323 | 123 ft | 4 kts | 174° |
| 2026-05-05 02:10 | 33.94033 | -118.40319 | 123 ft | 0 kts | 174° |
| 2026-05-05 02:11 | 33.94027 | -118.40318 | 123 ft | 2 kts | 174° |
| 2026-05-05 02:11 | 33.93980 | -118.40312 | 123 ft | 6 kts | 174° |
| 2026-05-05 02:11 | 33.93926 | -118.40301 | 123 ft | 8 kts | 172° |
| 2026-05-05 02:12 | 33.93883 | -118.40295 | 123 ft | 9 kts | 173° |
| 2026-05-05 02:12 | 33.93868 | -118.40117 | 120 ft | 15 kts | 84° |
| 2026-05-05 02:12 | 33.93884 | -118.39950 | 118 ft | 13 kts | 83° |
| 2026-05-05 02:13 | 33.93897 | -118.39829 | 116 ft | 15 kts | 82° |
| 2026-05-05 02:13 | 33.93911 | -118.39694 | 115 ft | 17 kts | 84° |
| 2026-05-05 02:13 | 33.93924 | -118.39537 | 112 ft | 19 kts | 85° |
| 2026-05-05 02:13 | 33.93943 | -118.39374 | 111 ft | 19 kts | 82° |
| 2026-05-05 02:14 | 33.93961 | -118.39206 | 109 ft | 21 kts | 83° |
| 2026-05-05 02:14 | 33.93979 | -118.39026 | 108 ft | 22 kts | 83° |
| 2026-05-05 02:14 | 33.93991 | -118.38901 | 107 ft | 20 kts | 83° |
| 2026-05-05 02:14 | 33.94014 | -118.38674 | 106 ft | 20 kts | 84° |
| 2026-05-05 02:15 | 33.94026 | -118.38560 | 105 ft | 20 kts | 82° |
| 2026-05-05 02:15 | 33.94046 | -118.38367 | 104 ft | 13 kts | 83° |
| 2026-05-05 02:15 | 33.94050 | -118.38329 | 104 ft | 4 kts | 84° |
| 2026-05-05 02:15 | 33.94057 | -118.38260 | 104 ft | 8 kts | 83° |
| 2026-05-05 02:16 | 33.94065 | -118.38181 | 104 ft | 9 kts | 83° |
| 2026-05-05 02:16 | 33.94071 | -118.38123 | 103 ft | 10 kts | 83° |
| 2026-05-05 02:16 | 33.94065 | -118.38022 | 103 ft | 9 kts | 133° |
| 2026-05-05 02:16 | 33.94000 | -118.38003 | 103 ft | 10 kts | 203° |
| 2026-05-05 02:17 | 33.93982 | -118.38040 | 103 ft | 0 kts | 265° |
| 2026-05-05 02:19 | 33.93982 | -118.38041 | 103 ft | 0 kts | 265° |
| 2026-05-05 02:19 | 33.93966 | -118.38197 | 104 ft | 63 kts | 262° |
| 2026-05-05 02:19 | 33.93867 | -118.39123 | 184 ft | 149 kts | 262° |
| 2026-05-05 02:20 | 33.93733 | -118.40397 | 1091 ft | 163 kts | 261° |
| 2026-05-05 02:20 | 33.93568 | -118.41721 | 2144 ft | 167 kts | 261° |
| 2026-05-05 02:20 | 33.93462 | -118.42693 | 2556 ft | 185 kts | 263° |
| 2026-05-05 02:20 | 33.93155 | -118.45060 | 2945 ft | 242 kts | 254° |
| 2026-05-05 02:21 | 33.92405 | -118.46993 | 3075 ft | 264 kts | 236° |
| 2026-05-05 02:21 | 33.91267 | -118.48795 | 3998 ft | 284 kts | 233° |
| 2026-05-05 02:21 | 33.90052 | -118.50571 | 5635 ft | 279 kts | 231° |
| 2026-05-05 02:21 | 33.88837 | -118.52283 | 7301 ft | 271 kts | 230° |
| 2026-05-05 02:22 | 33.88040 | -118.53402 | 8233 ft | 272 kts | 231° |
| 2026-05-05 02:22 | 33.86711 | -118.54961 | 9502 ft | 277 kts | 215° |
| 2026-05-05 02:22 | 33.84268 | -118.55881 | 11007 ft | 292 kts | 185° |
| 2026-05-05 02:22 | 33.82187 | -118.55520 | 11871 ft | 312 kts | 170° |
| 2026-05-05 02:23 | 33.80769 | -118.55113 | 12574 ft | 317 kts | 171° |
| 2026-05-05 02:23 | 33.77901 | -118.54303 | 14037 ft | 323 kts | 171° |
| 2026-05-05 02:23 | 33.75721 | -118.53702 | 15111 ft | 328 kts | 171° |
| 2026-05-05 02:23 | 33.73484 | -118.53092 | 16206 ft | 331 kts | 172° |
| 2026-05-05 02:24 | 33.71311 | -118.52228 | 17210 ft | 342 kts | 155° |
| 2026-05-05 02:24 | 33.69466 | -118.50352 | 18208 ft | 357 kts | 132° |
| 2026-05-05 02:24 | 33.68298 | -118.47691 | 19178 ft | 369 kts | 114° |
| 2026-05-05 02:24 | 33.67743 | -118.45773 | 19779 ft | 373 kts | 112° |
| 2026-05-05 02:25 | 33.66914 | -118.42780 | 20643 ft | 380 kts | 113° |
| 2026-05-05 02:25 | 33.66063 | -118.39775 | 21494 ft | 387 kts | 114° |
| 2026-05-05 02:25 | 33.64969 | -118.35629 | 22389 ft | 405 kts | 108° |
| 2026-05-05 02:25 | 33.64610 | -118.33401 | 22902 ft | 413 kts | 103° |
| 2026-05-05 02:26 | 33.64379 | -118.28747 | 23932 ft | 425 kts | 95° |
| 2026-05-05 02:26 | 33.64384 | -118.26376 | 24372 ft | 431 kts | 95° |
| 2026-05-05 02:26 | 33.64428 | -118.21546 | 25215 ft | 442 kts | 95° |
| 2026-05-05 02:26 | 33.64449 | -118.19079 | 25640 ft | 446 kts | 96° |
| 2026-05-05 02:27 | 33.64470 | -118.15334 | 26250 ft | 453 kts | 97° |
| 2026-05-05 02:27 | 33.64476 | -118.10237 | 27046 ft | 461 kts | 98° |
| 2026-05-05 02:27 | 33.64471 | -118.06384 | 27583 ft | 468 kts | 99° |
| 2026-05-05 02:27 | 33.64465 | -118.02470 | 28111 ft | 475 kts | 99° |
| 2026-05-05 02:28 | 33.64462 | -117.99842 | 28486 ft | 478 kts | 100° |
| 2026-05-05 02:28 | 33.64454 | -117.94460 | 29208 ft | 484 kts | 101° |
| 2026-05-05 02:28 | 33.64439 | -117.90404 | 29634 ft | 491 kts | 101° |
| 2026-05-05 02:28 | 33.64428 | -117.87711 | 29899 ft | 494 kts | 102° |
| 2026-05-05 02:29 | 33.64183 | -117.82234 | 30556 ft | 489 kts | 107° |
| 2026-05-05 02:29 | 33.63921 | -117.79588 | 30822 ft | 488 kts | 110° |
| 2026-05-05 02:29 | 33.63329 | -117.75558 | 31224 ft | 484 kts | 115° |
| 2026-05-05 02:29 | 33.62536 | -117.71709 | 31775 ft | 476 kts | 119° |
| 2026-05-05 02:30 | 33.61611 | -117.67922 | 32307 ft | 473 kts | 120° |
| 2026-05-05 02:30 | 33.60659 | -117.64158 | 32807 ft | 473 kts | 120° |
| 2026-05-05 02:30 | 33.59712 | -117.60400 | 33389 ft | 473 kts | 120° |
| 2026-05-05 02:30 | 33.58763 | -117.56620 | 34004 ft | 473 kts | 119° |
| 2026-05-05 02:31 | 33.57825 | -117.52872 | 34568 ft | 474 kts | 119° |
| 2026-05-05 02:31 | 33.56576 | -117.47839 | 35407 ft | 473 kts | 118° |
| 2026-05-05 02:31 | 33.55948 | -117.45301 | 35859 ft | 471 kts | 118° |
| 2026-05-05 02:31 | 33.54712 | -117.40314 | 36621 ft | 470 kts | 118° |
| 2026-05-05 02:32 | 33.53792 | -117.36620 | 37117 ft | 471 kts | 118° |
| 2026-05-05 02:32 | 33.53163 | -117.34095 | 37398 ft | 472 kts | 118° |
| 2026-05-05 02:32 | 33.51941 | -117.29050 | 37940 ft | 477 kts | 116° |
| 2026-05-05 02:32 | 33.51197 | -117.25171 | 38274 ft | 485 kts | 112° |
| 2026-05-05 02:33 | 33.50816 | -117.22514 | 38544 ft | 490 kts | 109° |
| 2026-05-05 02:33 | 33.50424 | -117.18441 | 38929 ft | 497 kts | 104° |
| 2026-05-05 02:33 | 33.50256 | -117.14249 | 39020 ft | 504 kts | 100° |
| 2026-05-05 02:34 | 33.50182 | -117.05888 | 39028 ft | 506 kts | 99° |
| 2026-05-05 02:34 | 33.50115 | -116.97482 | 39017 ft | 505 kts | 99° |
| 2026-05-05 02:35 | 33.49983 | -116.87702 | 39013 ft | 507 kts | 99° |
| 2026-05-05 02:35 | 33.49874 | -116.80703 | 38993 ft | 507 kts | 99° |
| 2026-05-05 02:36 | 33.49740 | -116.72280 | 38990 ft | 509 kts | 99° |
| 2026-05-05 02:36 | 33.49597 | -116.63839 | 38995 ft | 509 kts | 99° |
| 2026-05-05 02:37 | 33.49453 | -116.55389 | 38989 ft | 509 kts | 99° |
| 2026-05-05 02:37 | 33.49298 | -116.46960 | 38986 ft | 510 kts | 99° |
| 2026-05-05 02:38 | 33.49150 | -116.38475 | 38973 ft | 512 kts | 99° |
| 2026-05-05 02:38 | 33.49031 | -116.29958 | 38961 ft | 512 kts | 99° |
| 2026-05-05 02:39 | 33.48904 | -116.21461 | 38961 ft | 511 kts | 99° |
| 2026-05-05 02:39 | 33.48799 | -116.11518 | 38938 ft | 516 kts | 97° |
| 2026-05-05 02:40 | 33.49437 | -116.02960 | 38923 ft | 526 kts | 86° |
| 2026-05-05 02:40 | 33.50791 | -115.95765 | 38905 ft | 533 kts | 79° |
| 2026-05-05 02:41 | 33.53196 | -115.87377 | 38908 ft | 537 kts | 74° |
| 2026-05-05 02:41 | 33.55743 | -115.78956 | 38900 ft | 537 kts | 74° |
| 2026-05-05 02:42 | 33.58224 | -115.70525 | 38925 ft | 538 kts | 75° |
| 2026-05-05 02:42 | 33.60666 | -115.62120 | 38919 ft | 537 kts | 75° |
| 2026-05-05 02:43 | 33.62974 | -115.53619 | 38914 ft | 535 kts | 81° |
| 2026-05-05 02:43 | 33.64366 | -115.44988 | 38919 ft | 525 kts | 91° |
| 2026-05-05 02:44 | 33.64617 | -115.34947 | 38903 ft | 510 kts | 105° |
| 2026-05-05 02:44 | 33.63952 | -115.27985 | 38900 ft | 497 kts | 113° |
| 2026-05-05 02:44 | 33.63253 | -115.23964 | 38900 ft | 486 kts | 118° |
| 2026-05-05 02:45 | 33.62113 | -115.18823 | 38900 ft | 484 kts | 118° |
| 2026-05-05 02:45 | 33.60937 | -115.12173 | 38890 ft | 496 kts | 111° |
| 2026-05-05 02:46 | 33.60336 | -115.03814 | 38893 ft | 511 kts | 105° |
| 2026-05-05 02:46 | 33.60137 | -114.95319 | 38881 ft | 509 kts | 104° |
| 2026-05-05 02:47 | 33.59881 | -114.85452 | 38881 ft | 512 kts | 104° |
| 2026-05-05 02:47 | 33.59671 | -114.78313 | 38669 ft | 514 kts | 104° |
| 2026-05-05 02:47 | 33.59408 | -114.72701 | 37985 ft | 508 kts | 107° |
| 2026-05-05 02:48 | 33.59227 | -114.69874 | 37550 ft | 506 kts | 108° |
| 2026-05-05 02:48 | 33.58946 | -114.65670 | 36845 ft | 505 kts | 108° |
| 2026-05-05 02:48 | 33.58658 | -114.61499 | 36089 ft | 506 kts | 108° |
| 2026-05-05 02:48 | 33.58366 | -114.57293 | 35285 ft | 507 kts | 108° |
| 2026-05-05 02:49 | 33.58078 | -114.53134 | 34488 ft | 508 kts | 108° |
| 2026-05-05 02:49 | 33.57691 | -114.47542 | 33405 ft | 509 kts | 108° |
| 2026-05-05 02:49 | 33.57496 | -114.44695 | 32891 ft | 510 kts | 107° |
| 2026-05-05 02:49 | 33.57102 | -114.39069 | 31867 ft | 512 kts | 106° |
| 2026-05-05 02:50 | 33.56906 | -114.36275 | 31410 ft | 511 kts | 105° |
| 2026-05-05 02:50 | 33.56611 | -114.31982 | 30698 ft | 508 kts | 105° |
| 2026-05-05 02:50 | 33.56221 | -114.26398 | 29843 ft | 502 kts | 105° |
| 2026-05-05 02:50 | 33.56038 | -114.23681 | 29548 ft | 495 kts | 105° |
| 2026-05-05 02:51 | 33.55763 | -114.19631 | 29050 ft | 486 kts | 105° |
| 2026-05-05 02:51 | 33.55488 | -114.15640 | 28536 ft | 478 kts | 105° |
| 2026-05-05 02:51 | 33.55210 | -114.11689 | 28053 ft | 470 kts | 104° |
| 2026-05-05 02:51 | 33.54937 | -114.07819 | 27569 ft | 463 kts | 105° |
| 2026-05-05 02:52 | 33.54662 | -114.04004 | 27066 ft | 461 kts | 104° |
| 2026-05-05 02:52 | 33.54384 | -114.00191 | 26605 ft | 458 kts | 104° |
| 2026-05-05 02:52 | 33.54112 | -113.96435 | 26137 ft | 455 kts | 104° |
| 2026-05-05 02:52 | 33.53838 | -113.92660 | 25635 ft | 451 kts | 104° |
| 2026-05-05 02:53 | 33.53569 | -113.88963 | 25166 ft | 447 kts | 104° |
| 2026-05-05 02:53 | 33.53296 | -113.85255 | 24627 ft | 444 kts | 103° |
| 2026-05-05 02:53 | 33.53030 | -113.81601 | 24136 ft | 440 kts | 103° |
| 2026-05-05 02:53 | 33.52676 | -113.76795 | 23444 ft | 435 kts | 103° |
| 2026-05-05 02:54 | 33.52502 | -113.74415 | 23073 ft | 433 kts | 103° |
| 2026-05-05 02:54 | 33.52236 | -113.70828 | 22560 ft | 429 kts | 103° |
| 2026-05-05 02:54 | 33.51971 | -113.67313 | 22064 ft | 425 kts | 102° |
| 2026-05-05 02:54 | 33.51707 | -113.63830 | 21591 ft | 420 kts | 102° |
| 2026-05-05 02:55 | 33.51446 | -113.60382 | 21151 ft | 415 kts | 101° |
| 2026-05-05 02:55 | 33.51186 | -113.56928 | 20704 ft | 411 kts | 101° |
| 2026-05-05 02:55 | 33.50934 | -113.53567 | 20231 ft | 408 kts | 101° |
| 2026-05-05 02:55 | 33.50591 | -113.49070 | 19573 ft | 403 kts | 99° |
| 2026-05-05 02:56 | 33.50423 | -113.46891 | 19280 ft | 400 kts | 99° |
| 2026-05-05 02:56 | 33.50170 | -113.43589 | 18824 ft | 397 kts | 98° |
| 2026-05-05 02:56 | 33.49920 | -113.40337 | 18368 ft | 393 kts | 98° |
| 2026-05-05 02:56 | 33.49671 | -113.37103 | 17889 ft | 389 kts | 97° |
| 2026-05-05 02:57 | 33.49423 | -113.33862 | 17394 ft | 386 kts | 98° |
| 2026-05-05 02:57 | 33.49181 | -113.30683 | 16872 ft | 383 kts | 98° |
| 2026-05-05 02:57 | 33.48941 | -113.27547 | 16320 ft | 381 kts | 98° |
| 2026-05-05 02:57 | 33.48697 | -113.24410 | 15796 ft | 378 kts | 98° |
| 2026-05-05 02:58 | 33.48454 | -113.21284 | 15248 ft | 375 kts | 98° |
| 2026-05-05 02:58 | 33.48210 | -113.18173 | 14701 ft | 372 kts | 98° |
| 2026-05-05 02:58 | 33.47971 | -113.15133 | 14165 ft | 369 kts | 98° |
| 2026-05-05 02:58 | 33.47729 | -113.12069 | 13631 ft | 365 kts | 98° |
| 2026-05-05 02:59 | 33.47494 | -113.09090 | 13109 ft | 362 kts | 98° |
| 2026-05-05 02:59 | 33.47257 | -113.06104 | 12600 ft | 358 kts | 98° |
| 2026-05-05 02:59 | 33.47022 | -113.03140 | 12074 ft | 355 kts | 98° |
| 2026-05-05 02:59 | 33.46791 | -113.00249 | 11563 ft | 351 kts | 98° |
| 2026-05-05 03:00 | 33.46560 | -112.97363 | 11057 ft | 348 kts | 98° |
| 2026-05-05 03:00 | 33.46330 | -112.94491 | 10546 ft | 344 kts | 99° |
| 2026-05-05 03:00 | 33.46103 | -112.91691 | 10170 ft | 336 kts | 99° |
| 2026-05-05 03:00 | 33.45882 | -112.88941 | 9962 ft | 321 kts | 99° |
| 2026-05-05 03:01 | 33.45672 | -112.86343 | 9743 ft | 310 kts | 99° |
| 2026-05-05 03:01 | 33.45464 | -112.83816 | 9355 ft | 305 kts | 99° |
| 2026-05-05 03:01 | 33.45260 | -112.81288 | 8953 ft | 301 kts | 99° |
| 2026-05-05 03:01 | 33.45071 | -112.78824 | 8564 ft | 297 kts | 98° |
| 2026-05-05 03:02 | 33.44883 | -112.76380 | 8188 ft | 293 kts | 98° |
| 2026-05-05 03:02 | 33.44689 | -112.73953 | 7820 ft | 292 kts | 98° |
| 2026-05-05 03:02 | 33.44493 | -112.71539 | 7455 ft | 291 kts | 98° |
| 2026-05-05 03:02 | 33.44291 | -112.69113 | 7083 ft | 290 kts | 98° |
| 2026-05-05 03:03 | 33.44091 | -112.66727 | 6716 ft | 288 kts | 98° |
| 2026-05-05 03:03 | 33.43894 | -112.64343 | 6353 ft | 287 kts | 98° |
| 2026-05-05 03:03 | 33.43698 | -112.61979 | 5990 ft | 286 kts | 98° |
| 2026-05-05 03:03 | 33.43499 | -112.59624 | 5628 ft | 285 kts | 98° |
| 2026-05-05 03:04 | 33.43295 | -112.57276 | 5264 ft | 282 kts | 98° |
| 2026-05-05 03:04 | 33.43096 | -112.54962 | 5003 ft | 274 kts | 98° |
| 2026-05-05 03:04 | 33.42913 | -112.52750 | 4763 ft | 266 kts | 98° |
| 2026-05-05 03:04 | 33.42739 | -112.50596 | 4514 ft | 251 kts | 98° |
| 2026-05-05 03:05 | 33.42578 | -112.48586 | 4268 ft | 237 kts | 98° |
| 2026-05-05 03:05 | 33.42426 | -112.46661 | 4016 ft | 224 kts | 98° |
| 2026-05-05 03:05 | 33.42289 | -112.44862 | 3765 ft | 212 kts | 97° |
| 2026-05-05 03:05 | 33.42441 | -112.43157 | 3495 ft | 205 kts | 66° |
| 2026-05-05 03:06 | 33.43281 | -112.41821 | 3266 ft | 202 kts | 44° |
| 2026-05-05 03:06 | 33.44318 | -112.40698 | 3100 ft | 194 kts | 40° |
| 2026-05-05 03:06 | 33.45336 | -112.39665 | 2879 ft | 189 kts | 39° |
| 2026-05-05 03:06 | 33.46312 | -112.38689 | 2744 ft | 175 kts | 38° |
| 2026-05-05 03:07 | 33.47213 | -112.37785 | 2539 ft | 164 kts | 39° |
| 2026-05-05 03:07 | 33.48070 | -112.36924 | 2320 ft | 155 kts | 43° |
| 2026-05-05 03:07 | 33.48542 | -112.35860 | 2151 ft | 146 kts | 88° |
| 2026-05-05 03:07 | 33.48235 | -112.34780 | 1929 ft | 136 kts | 127° |
| 2026-05-05 03:08 | 33.47586 | -112.34030 | 1820 ft | 127 kts | 163° |
| 2026-05-05 03:08 | 33.46750 | -112.34036 | 1629 ft | 118 kts | 199° |
| 2026-05-05 03:08 | 33.45972 | -112.34393 | 1508 ft | 118 kts | 209° |
| 2026-05-05 03:08 | 33.45260 | -112.34875 | 1418 ft | 118 kts | 214° |
| 2026-05-05 03:09 | 33.44574 | -112.35446 | 1310 ft | 119 kts | 218° |
| 2026-05-05 03:09 | 33.43922 | -112.36049 | 1173 ft | 118 kts | 219° |
| 2026-05-05 03:09 | 33.43268 | -112.36655 | 1022 ft | 118 kts | 219° |
| 2026-05-05 03:09 | 33.42657 | -112.37231 | 976 ft | 95 kts | 218° |
| 2026-05-05 03:10 | 33.42278 | -112.37584 | 971 ft | 40 kts | 218° |
| 2026-05-05 03:10 | 33.42103 | -112.37660 | 969 ft | 14 kts | 176° |
| 2026-05-05 03:10 | 33.42066 | -112.37617 | 969 ft | 8 kts | 58° |
| 2026-05-05 03:10 | 33.42115 | -112.37569 | 970 ft | 9 kts | 38° |
| 2026-05-05 03:11 | 33.42173 | -112.37515 | 970 ft | 11 kts | 38° |
| 2026-05-05 03:11 | 33.42237 | -112.37455 | 971 ft | 12 kts | 39° |
| 2026-05-05 03:11 | 33.42307 | -112.37389 | 972 ft | 13 kts | 38° |
| 2026-05-05 03:11 | 33.42381 | -112.37319 | 973 ft | 14 kts | 38° |
| 2026-05-05 03:12 | 33.42460 | -112.37246 | 974 ft | 14 kts | 38° |
| 2026-05-05 03:12 | 33.42542 | -112.37169 | 975 ft | 15 kts | 38° |
| 2026-05-05 03:12 | 33.42629 | -112.37089 | 976 ft | 15 kts | 38° |
| 2026-05-05 03:12 | 33.42715 | -112.37007 | 977 ft | 14 kts | 38° |
| 2026-05-05 03:13 | 33.42765 | -112.36961 | 977 ft | 6 kts | 38° |
| 2026-05-05 03:13 | 33.42790 | -112.36914 | 978 ft | 7 kts | 96° |
| 2026-05-05 03:13 | 33.42760 | -112.36876 | 977 ft | 5 kts | 174° |
| 2026-05-05 03:13 | 33.42713 | -112.36882 | 977 ft | 5 kts | 149° |
| 2026-05-05 03:14 | 33.42692 | -112.36841 | 977 ft | 7 kts | 128° |
| 2026-05-05 03:14 | 33.42677 | -112.36807 | 977 ft | 2 kts | 70° |
| 2026-05-05 03:14 | 33.42685 | -112.36797 | 977 ft | 0 kts | 38° |